Time;durP1;ratioP1;P1;durP2;ratioP2;P2;SDS_P1;SDS_P2;PMS_P1;PMS_P2;Temp;Humidity;BMP_temperature;BMP_pressure;BME280_temperature;BME280_humidity;BME280_pressure;Samples;Min_cycle;Max_cycle;Signal;HPM_P1;HPM_P2
2021/12/06 00:00:42;;;;;;;71.73;63.83;;;1.70;99.90;;;;;;5093652;28;20227;-71
2021/12/06 00:03:37;;;;;;;72.83;65.07;;;1.80;99.90;;;;;;5094484;27;20214;-73
2021/12/06 00:06:29;;;;;;;72.80;65.07;;;1.80;99.90;;;;;;5095429;27;20226;-72
2021/12/06 00:09:21;;;;;;;70.80;63.13;;;1.80;99.90;;;;;;5094059;28;20222;-73
2021/12/06 00:12:11;;;;;;;69.90;61.87;;;1.80;99.90;;;;;;5090221;28;20227;-73
2021/12/06 00:15:02;;;;;;;71.87;61.70;;;1.90;99.90;;;;;;5098683;28;20233;-73
2021/12/06 00:17:51;;;;;;;72.47;63.43;;;1.90;99.90;;;;;;5099279;27;20293;-70
2021/12/06 00:20:39;;;;;;;68.47;60.90;;;1.90;99.90;;;;;;5096405;28;20237;-71
2021/12/06 00:23:28;;;;;;;72.27;64.40;;;1.90;99.90;;;;;;5090494;28;20313;-71
2021/12/06 00:26:19;;;;;;;70.87;63.43;;;1.90;99.90;;;;;;5094199;28;20223;-71
2021/12/06 00:29:09;;;;;;;71.60;64.03;;;1.90;99.90;;;;;;5093072;28;20554;-72
2021/12/06 00:31:59;;;;;;;74.07;61.53;;;1.90;99.90;;;;;;5094326;27;20222;-69
2021/12/06 00:34:49;;;;;;;70.97;62.20;;;1.90;99.90;;;;;;5092371;28;20215;-71
2021/12/06 00:37:44;;;;;;;73.57;65.03;;;1.90;99.90;;;;;;5093142;28;20281;-70
2021/12/06 00:40:36;;;;;;;69.87;62.43;;;1.80;99.90;;;;;;5076811;28;20230;-72
2021/12/06 00:43:25;;;;;;;73.07;64.10;;;1.90;99.90;;;;;;5103759;27;20494;-71
2021/12/06 00:46:15;;;;;;;73.07;62.03;;;2.00;99.90;;;;;;5090180;28;20305;-70
2021/12/06 00:49:06;;;;;;;72.07;63.40;;;2.00;99.90;;;;;;5096775;28;20238;-71
2021/12/06 00:51:55;;;;;;;76.27;65.80;;;2.00;99.90;;;;;;5093858;27;20222;-71
2021/12/06 00:54:45;;;;;;;73.37;63.33;;;1.80;99.90;;;;;;5090007;28;20248;-72
2021/12/06 00:57:33;;;;;;;71.07;63.20;;;1.80;99.90;;;;;;5088885;28;20306;-72
2021/12/06 01:00:27;;;;;;;68.07;59.77;;;1.80;99.90;;;;;;5101238;27;20243;-76
2021/12/06 01:03:25;;;;;;;67.07;57.83;;;1.80;99.90;;;;;;5091577;28;20222;-77
2021/12/06 01:06:16;;;;;;;73.80;65.03;;;1.90;99.90;;;;;;5094659;28;20344;-77
2021/12/06 01:09:05;;;;;;;67.47;60.33;;;1.90;99.90;;;;;;5095612;28;20578;-75
2021/12/06 01:11:54;;;;;;;66.83;59.83;;;1.80;99.90;;;;;;5095302;27;20219;-76
2021/12/06 01:14:43;;;;;;;67.83;60.20;;;1.80;99.90;;;;;;5094342;27;20640;-76
2021/12/06 01:17:32;;;;;;;71.43;63.03;;;1.70;99.90;;;;;;5091321;28;20275;-77
2021/12/06 01:20:27;;;;;;;74.13;64.17;;;1.80;99.90;;;;;;5090312;28;20251;-76
2021/12/06 01:23:20;;;;;;;64.30;57.27;;;1.70;99.90;;;;;;5087152;28;20215;-77
2021/12/06 01:26:27;;;;;;;70.17;62.83;;;1.80;99.90;;;;;;5096949;28;20234;-77
2021/12/06 01:29:45;;;;;;;69.03;58.77;;;1.70;99.90;;;;;;5095122;28;20222;-78
2021/12/06 01:33:03;;;;;;;67.23;60.07;;;1.80;99.90;;;;;;5089582;28;20220;-76
2021/12/06 01:39:12;;;;;;;64.80;58.07;;;1.80;99.90;;;;;;5090412;28;20211;-77
2021/12/06 01:42:05;;;;;;;69.37;61.87;;;1.80;99.90;;;;;;5083033;28;20244;-76
2021/12/06 01:44:56;;;;;;;66.50;59.10;;;1.70;99.90;;;;;;5091640;28;20240;-77
2021/12/06 01:47:49;;;;;;;71.60;59.13;;;1.90;99.90;;;;;;5093642;28;20214;-77
2021/12/06 01:50:40;;;;;;;70.43;62.57;;;1.90;99.90;;;;;;5093481;28;20805;-77
2021/12/06 01:53:32;;;;;;;68.83;61.30;;;1.80;99.90;;;;;;5090072;28;20234;-77
2021/12/06 01:56:23;;;;;;;67.50;59.80;;;1.90;99.90;;;;;;5093813;28;20922;-77
2021/12/06 01:59:13;;;;;;;68.70;60.20;;;1.90;99.90;;;;;;5091043;28;20238;-76
2021/12/06 02:02:02;;;;;;;71.20;62.03;;;2.00;99.90;;;;;;5088965;28;20226;-76
2021/12/06 02:04:51;;;;;;;69.03;60.90;;;1.90;99.90;;;;;;5104080;27;20222;-76
2021/12/06 02:07:40;;;;;;;66.13;59.00;;;1.80;99.90;;;;;;5096935;28;20226;-76
2021/12/06 02:10:29;;;;;;;66.87;58.97;;;1.80;99.90;;;;;;5097184;28;20310;-76
2021/12/06 02:13:20;;;;;;;64.93;57.87;;;1.80;99.90;;;;;;5095685;28;20230;-77
2021/12/06 02:16:09;;;;;;;67.10;59.80;;;1.90;99.90;;;;;;5089068;27;20305;-77
2021/12/06 02:19:03;;;;;;;67.93;60.43;;;2.00;99.90;;;;;;5094738;28;20304;-77
2021/12/06 02:21:53;;;;;;;68.13;60.83;;;2.00;99.90;;;;;;5094419;28;20250;-75
2021/12/06 02:24:47;;;;;;;67.67;60.43;;;1.90;99.90;;;;;;5096953;27;20234;-74
2021/12/06 02:27:36;;;;;;;66.23;59.23;;;2.00;99.90;;;;;;5094069;27;20230;-76
2021/12/06 02:30:25;;;;;;;69.87;62.33;;;2.00;99.90;;;;;;5093875;27;20215;-77
2021/12/06 02:33:14;;;;;;;61.47;55.27;;;1.90;99.90;;;;;;5093176;28;20215;-77
2021/12/06 02:36:03;;;;;;;67.30;60.23;;;1.90;99.90;;;;;;5094921;28;20306;-77
2021/12/06 02:38:53;;;;;;;66.27;59.13;;;1.90;99.90;;;;;;5112981;27;20219;-77
2021/12/06 02:41:42;;;;;;;66.70;59.87;;;2.00;99.90;;;;;;5093573;28;20823;-79
2021/12/06 02:44:32;;;;;;;64.93;58.27;;;1.90;99.90;;;;;;5093895;27;20303;-74
2021/12/06 02:47:22;;;;;;;67.60;60.73;;;1.90;99.90;;;;;;5098836;28;20258;-75
2021/12/06 02:50:13;;;;;;;65.93;59.33;;;1.90;99.90;;;;;;5098254;27;20215;-76
2021/12/06 02:53:01;;;;;;;64.40;57.93;;;2.00;99.90;;;;;;5113272;27;20247;-75
2021/12/06 02:55:54;;;;;;;63.93;57.77;;;1.90;99.90;;;;;;5101548;28;20226;-76
2021/12/06 02:58:56;;;;;;;64.70;58.43;;;1.90;99.90;;;;;;5100013;28;20290;-76
2021/12/06 03:01:50;;;;;;;63.50;57.00;;;1.80;99.90;;;;;;5097093;27;20647;-74
2021/12/06 03:04:41;;;;;;;65.27;58.47;;;1.90;99.90;;;;;;5094071;27;20336;-75
2021/12/06 03:07:33;;;;;;;66.40;59.53;;;2.00;99.90;;;;;;5091051;27;20439;-75
2021/12/06 03:10:22;;;;;;;62.83;56.43;;;1.90;99.90;;;;;;5096342;28;20230;-74
2021/12/06 03:13:12;;;;;;;63.57;56.90;;;1.90;99.90;;;;;;5096163;27;20220;-72
2021/12/06 03:16:02;;;;;;;64.00;57.50;;;1.90;99.90;;;;;;5093952;28;20227;-75
2021/12/06 03:18:53;;;;;;;65.63;58.83;;;2.00;99.90;;;;;;5096057;28;20223;-74
2021/12/06 03:21:43;;;;;;;63.30;57.23;;;2.00;99.90;;;;;;5092983;28;20222;-74
2021/12/06 03:24:32;;;;;;;64.97;58.23;;;1.90;99.90;;;;;;5092274;28;20715;-75
2021/12/06 03:27:21;;;;;;;63.50;57.17;;;1.80;99.90;;;;;;5094660;27;20317;-75
2021/12/06 03:30:16;;;;;;;64.27;57.57;;;1.80;99.90;;;;;;5094755;28;20231;-75
2021/12/06 03:33:05;;;;;;;60.70;54.87;;;1.70;99.90;;;;;;5099147;27;20741;-76
2021/12/06 03:35:55;;;;;;;64.67;58.47;;;1.70;99.90;;;;;;5097095;28;20686;-74
2021/12/06 03:38:44;;;;;;;60.67;54.80;;;1.60;99.90;;;;;;5090305;28;20230;-73
2021/12/06 03:41:33;;;;;;;59.60;53.93;;;1.60;99.90;;;;;;5092687;27;20252;-76
2021/12/06 03:44:23;;;;;;;62.83;56.33;;;1.50;99.90;;;;;;5093635;27;20222;-75
2021/12/06 03:47:22;;;;;;;61.63;55.60;;;1.50;99.90;;;;;;5092122;28;20583;-73
2021/12/06 03:50:12;;;;;;;64.60;58.47;;;1.60;99.90;;;;;;5105286;27;20287;-74
2021/12/06 03:53:01;;;;;;;58.43;53.13;;;1.60;99.90;;;;;;5096048;28;20228;-75
2021/12/06 03:55:50;;;;;;;63.70;57.57;;;1.50;99.90;;;;;;5093773;28;20467;-74
2021/12/06 03:58:39;;;;;;;63.20;57.10;;;1.50;99.90;;;;;;5092089;28;20309;-75
2021/12/06 04:01:31;;;;;;;62.03;56.37;;;1.60;99.90;;;;;;5093146;28;20278;-74
2021/12/06 04:04:23;;;;;;;63.23;57.20;;;1.60;99.90;;;;;;5093998;27;20224;-74
2021/12/06 04:07:13;;;;;;;62.03;56.17;;;1.60;99.90;;;;;;5093250;28;20270;-73
2021/12/06 04:10:04;;;;;;;61.90;55.90;;;1.60;99.90;;;;;;5092974;27;20679;-76
2021/12/06 04:12:55;;;;;;;61.43;55.50;;;1.50;99.90;;;;;;5093477;28;20806;-75
2021/12/06 04:15:45;;;;;;;61.03;55.60;;;1.70;99.90;;;;;;5093258;27;21007;-75
2021/12/06 04:18:34;;;;;;;60.07;54.47;;;1.80;99.90;;;;;;5090854;28;20222;-75
2021/12/06 04:21:28;;;;;;;61.53;56.03;;;1.80;99.90;;;;;;5094115;28;20304;-75
2021/12/06 04:24:17;;;;;;;61.23;55.80;;;1.80;99.90;;;;;;5089915;27;20356;-75
2021/12/06 04:27:13;;;;;;;59.63;54.30;;;1.80;99.90;;;;;;5091745;28;20274;-76
2021/12/06 04:30:06;;;;;;;58.20;53.17;;;1.60;99.90;;;;;;5094327;28;20296;-76
2021/12/06 04:32:57;;;;;;;62.57;56.73;;;1.60;99.90;;;;;;5095133;28;21018;-76
2021/12/06 04:35:47;;;;;;;59.03;53.77;;;1.60;99.90;;;;;;5093330;28;20215;-75
2021/12/06 04:38:38;;;;;;;61.23;55.37;;;1.60;99.90;;;;;;5104698;27;20223;-76
2021/12/06 04:41:27;;;;;;;58.80;53.43;;;1.60;99.90;;;;;;5093425;28;20703;-75
2021/12/06 04:44:16;;;;;;;61.73;55.63;;;1.60;99.90;;;;;;5089657;27;20230;-75
2021/12/06 04:47:07;;;;;;;63.03;56.57;;;1.40;99.90;;;;;;5092277;28;20227;-74
2021/12/06 04:49:57;;;;;;;64.10;57.77;;;1.50;99.90;;;;;;5094420;28;20273;-75
2021/12/06 04:52:47;;;;;;;62.73;56.70;;;1.60;99.90;;;;;;5092465;28;20375;-75
2021/12/06 04:55:41;;;;;;;64.17;57.83;;;1.50;99.90;;;;;;5091106;28;20218;-76
2021/12/06 04:58:39;;;;;;;65.37;59.07;;;1.50;99.90;;;;;;5094981;28;20227;-73
2021/12/06 05:01:30;;;;;;;65.97;59.23;;;1.50;99.90;;;;;;5094688;28;20347;-75
2021/12/06 05:04:25;;;;;;;65.13;58.70;;;1.60;99.90;;;;;;5091153;28;20261;-76
2021/12/06 05:07:19;;;;;;;65.37;58.53;;;1.60;99.90;;;;;;5081710;28;20219;-74
2021/12/06 05:10:12;;;;;;;62.90;56.70;;;1.60;99.90;;;;;;5089864;28;20241;-75
2021/12/06 05:13:02;;;;;;;62.93;56.43;;;1.60;99.90;;;;;;5095744;28;20699;-73
2021/12/06 05:15:51;;;;;;;61.13;55.50;;;1.50;99.90;;;;;;5093741;28;20219;-75
2021/12/06 05:18:42;;;;;;;65.27;58.77;;;1.60;99.90;;;;;;5088493;28;20310;-74
2021/12/06 05:21:30;;;;;;;62.90;56.80;;;1.60;99.90;;;;;;5118756;27;20318;-72
2021/12/06 05:24:19;;;;;;;65.97;59.13;;;1.60;99.90;;;;;;5093268;28;20239;-71
2021/12/06 05:27:10;;;;;;;65.27;58.80;;;1.60;99.90;;;;;;5091217;28;20716;-74
2021/12/06 05:30:06;;;;;;;66.30;59.43;;;1.70;99.90;;;;;;5087474;28;20298;-75
2021/12/06 05:32:59;;;;;;;62.67;56.20;;;1.70;99.90;;;;;;5108723;27;20720;-74
2021/12/06 05:35:48;;;;;;;62.03;55.73;;;1.70;99.90;;;;;;5080010;28;20229;-74
2021/12/06 05:38:37;;;;;;;65.30;58.30;;;1.70;99.90;;;;;;5093159;28;20223;-74
2021/12/06 05:41:26;;;;;;;67.13;58.83;;;1.70;99.90;;;;;;5090968;28;20730;-75
2021/12/06 05:44:15;;;;;;;62.83;56.50;;;1.60;99.90;;;;;;5095050;28;20567;-73
2021/12/06 05:47:05;;;;;;;64.33;57.53;;;1.60;99.90;;;;;;5095091;27;20280;-75
2021/12/06 05:49:54;;;;;;;62.03;55.43;;;1.50;99.90;;;;;;5091121;28;20227;-75
2021/12/06 05:52:43;;;;;;;63.27;56.03;;;1.50;99.90;;;;;;5091545;28;20211;-73
2021/12/06 05:55:32;;;;;;;63.80;57.10;;;1.60;99.90;;;;;;5093632;28;20230;-75
2021/12/06 05:58:27;;;;;;;65.43;58.60;;;1.50;99.90;;;;;;5089534;28;20235;-74
2021/12/06 06:01:16;;;;;;;61.60;55.27;;;1.60;99.90;;;;;;5091780;28;20233;-73
2021/12/06 06:04:12;;;;;;;62.30;55.90;;;1.40;99.90;;;;;;5091416;28;20359;-74
2021/12/06 06:07:01;;;;;;;64.57;57.87;;;1.40;99.90;;;;;;5094269;28;20215;-72
2021/12/06 06:09:49;;;;;;;54.63;50.03;;;1.40;99.90;;;;;;5094549;28;20214;-73
2021/12/06 06:12:38;;;;;;;64.70;58.43;;;1.20;99.90;;;;;;5092915;28;20298;-73
2021/12/06 06:15:29;;;;;;;67.90;61.20;;;1.30;99.90;;;;;;5092599;28;20219;-74
2021/12/06 06:18:18;;;;;;;62.17;55.97;;;1.40;99.90;;;;;;5091021;28;20696;-74
2021/12/06 06:21:08;;;;;;;62.80;56.67;;;1.30;99.90;;;;;;5090301;28;20219;-73
2021/12/06 06:23:57;;;;;;;64.73;58.40;;;1.40;99.90;;;;;;5092954;28;20225;-74
2021/12/06 06:26:45;;;;;;;60.70;54.83;;;1.30;99.90;;;;;;5091128;28;21119;-74
2021/12/06 06:29:34;;;;;;;63.63;57.33;;;1.30;99.90;;;;;;5092589;27;20321;-74
2021/12/06 06:32:23;;;;;;;64.07;57.43;;;1.30;99.90;;;;;;5082428;27;20307;-74
2021/12/06 06:35:13;;;;;;;63.73;57.50;;;1.40;99.90;;;;;;5096327;28;20230;-75
2021/12/06 06:38:03;;;;;;;62.53;56.23;;;1.40;99.90;;;;;;5094382;27;20225;-74
2021/12/06 06:40:52;;;;;;;65.37;58.57;;;1.40;99.90;;;;;;5080105;28;20842;-71
2021/12/06 06:43:41;;;;;;;68.17;61.33;;;1.50;99.90;;;;;;5094484;28;20298;-70
2021/12/06 06:46:30;;;;;;;62.83;55.73;;;1.60;99.90;;;;;;5078917;27;20231;-71
2021/12/06 06:49:19;;;;;;;64.83;58.20;;;1.50;99.90;;;;;;5096594;27;20341;-71
2021/12/06 06:52:08;;;;;;;64.80;58.00;;;1.50;99.90;;;;;;5081145;27;20300;-72
2021/12/06 06:54:59;;;;;;;65.37;58.60;;;1.60;99.90;;;;;;5097276;27;20349;-75
2021/12/06 06:57:50;;;;;;;60.30;54.07;;;1.60;99.90;;;;;;5097855;27;20227;-71
2021/12/06 07:00:39;;;;;;;67.40;60.43;;;1.60;99.90;;;;;;5086068;28;20359;-72
2021/12/06 07:03:31;;;;;;;65.23;58.67;;;1.50;99.90;;;;;;5084405;28;20228;-69
2021/12/06 07:06:22;;;;;;;64.40;57.47;;;1.40;99.90;;;;;;5085130;28;20226;-70
2021/12/06 07:09:11;;;;;;;65.13;58.53;;;1.30;99.90;;;;;;5070733;27;20722;-72
2021/12/06 07:12:01;;;;;;;66.10;59.40;;;1.40;99.90;;;;;;5084746;27;20669;-69
2021/12/06 07:14:50;;;;;;;65.10;58.27;;;1.40;99.90;;;;;;5085204;28;20219;-69
2021/12/06 07:17:40;;;;;;;69.67;62.17;;;1.50;99.90;;;;;;5086366;27;20215;-68
2021/12/06 07:20:30;;;;;;;69.43;61.90;;;1.40;99.90;;;;;;5072069;27;20220;-70
2021/12/06 07:23:19;;;;;;;65.30;58.70;;;1.50;99.90;;;;;;5076509;27;20582;-70
2021/12/06 07:26:08;;;;;;;70.17;62.73;;;1.40;99.90;;;;;;5076933;27;20298;-65
2021/12/06 07:28:59;;;;;;;65.50;58.37;;;1.50;99.90;;;;;;5082559;27;20262;-67
2021/12/06 07:31:47;;;;;;;72.07;62.87;;;1.40;99.90;;;;;;5096371;28;20218;-67
2021/12/06 07:34:37;;;;;;;71.43;62.93;;;1.40;99.90;;;;;;5097993;27;20223;-66
2021/12/06 07:37:26;;;;;;;72.73;64.10;;;1.30;99.90;;;;;;5097542;28;20223;-65
2021/12/06 07:40:17;;;;;;;75.67;64.93;;;1.30;99.90;;;;;;5095495;28;20222;-66
2021/12/06 07:43:05;;;;;;;76.37;66.13;;;1.40;99.90;;;;;;5093065;28;20272;-65
2021/12/06 07:45:55;;;;;;;84.33;67.43;;;1.40;99.90;;;;;;5111123;27;20219;-65
2021/12/06 07:48:45;;;;;;;76.17;67.87;;;1.50;99.90;;;;;;5098496;27;20215;-65
2021/12/06 07:51:34;;;;;;;76.53;65.10;;;1.60;99.90;;;;;;5093811;28;20703;-65
2021/12/06 07:54:23;;;;;;;78.60;64.33;;;1.60;99.90;;;;;;5094820;27;20662;-67
2021/12/06 07:57:12;;;;;;;76.87;65.70;;;1.50;99.90;;;;;;5101576;27;20724;-68
2021/12/06 08:00:01;;;;;;;80.23;66.37;;;1.40;99.90;;;;;;5093645;27;20229;-66
2021/12/06 08:02:55;;;;;;;68.60;59.40;;;1.60;99.90;;;;;;5098755;27;20321;-66
2021/12/06 08:05:50;;;;;;;74.60;59.60;;;1.50;99.90;;;;;;5093757;28;20253;-66
2021/12/06 08:08:43;;;;;;;67.57;57.30;;;1.50;99.90;;;;;;5090964;27;20223;-66
2021/12/06 08:11:32;;;;;;;83.13;64.03;;;1.40;99.90;;;;;;5091176;28;20300;-65
2021/12/06 08:14:21;;;;;;;90.00;67.87;;;1.40;99.90;;;;;;5096356;28;20333;-67
2021/12/06 08:17:09;;;;;;;85.90;63.83;;;1.50;99.90;;;;;;5096372;28;20235;-66
2021/12/06 08:20:00;;;;;;;89.13;65.63;;;1.60;99.90;;;;;;5096429;27;20275;-65
2021/12/06 08:22:48;;;;;;;102.57;71.23;;;1.40;99.90;;;;;;5090137;28;20246;-66
2021/12/06 08:25:38;;;;;;;95.87;68.40;;;1.50;99.90;;;;;;5096909;28;20229;-65
2021/12/06 08:28:28;;;;;;;94.03;69.30;;;1.50;99.90;;;;;;5088392;28;20243;-66
2021/12/06 08:31:19;;;;;;;103.90;70.80;;;1.50;99.90;;;;;;5095997;28;20217;-65
2021/12/06 08:34:08;;;;;;;99.77;67.73;;;1.50;99.90;;;;;;5097334;27;20257;-65
2021/12/06 08:36:59;;;;;;;107.57;71.87;;;1.30;99.90;;;;;;5090660;28;20459;-65
2021/12/06 08:39:48;;;;;;;106.93;67.47;;;1.40;99.90;;;;;;5089391;28;20228;-67
2021/12/06 08:42:36;;;;;;;110.80;67.77;;;1.30;99.90;;;;;;5094509;28;20221;-65
2021/12/06 08:45:27;;;;;;;102.97;68.23;;;1.30;99.90;;;;;;5089156;27;20314;-66
2021/12/06 08:48:16;;;;;;;100.53;67.20;;;1.30;99.90;;;;;;5096426;28;20228;-67
2021/12/06 08:51:08;;;;;;;120.77;73.80;;;1.20;99.90;;;;;;5089777;27;21218;-65
2021/12/06 08:54:01;;;;;;;119.07;72.13;;;1.20;99.90;;;;;;5090871;28;20226;-65
2021/12/06 08:56:50;;;;;;;94.87;63.23;;;1.20;99.90;;;;;;5093544;28;20223;-67
2021/12/06 08:59:39;;;;;;;129.50;73.90;;;1.30;99.90;;;;;;5095412;27;20225;-68
2021/12/06 09:02:30;;;;;;;110.27;71.30;;;1.30;99.90;;;;;;5092940;27;20230;-67
2021/12/06 09:05:41;;;;;;;127.43;74.13;;;1.30;99.90;;;;;;5094394;28;20288;-66
2021/12/06 09:08:30;;;;;;;109.60;69.67;;;1.30;99.90;;;;;;5099655;27;20222;-67
2021/12/06 09:11:20;;;;;;;107.17;70.17;;;1.30;99.90;;;;;;5095065;28;20223;-67
2021/12/06 09:14:10;;;;;;;108.60;73.33;;;1.20;99.90;;;;;;5089175;28;20587;-68
2021/12/06 09:16:59;;;;;;;114.13;71.50;;;1.30;99.90;;;;;;5096683;28;20733;-68
2021/12/06 09:19:48;;;;;;;109.80;68.80;;;1.10;99.90;;;;;;5092865;28;20595;-68
2021/12/06 09:22:38;;;;;;;130.43;76.63;;;1.10;99.90;;;;;;5088328;27;20219;-67
2021/12/06 09:25:28;;;;;;;124.33;72.40;;;1.10;99.90;;;;;;5093951;28;20218;-67
2021/12/06 09:28:22;;;;;;;137.90;76.73;;;1.10;99.90;;;;;;5092285;28;20660;-65
2021/12/06 09:31:12;;;;;;;122.47;72.77;;;1.30;99.90;;;;;;5092463;28;20279;-66
2021/12/06 09:34:01;;;;;;;108.30;68.40;;;1.30;99.90;;;;;;5090855;28;20223;-65
2021/12/06 09:36:50;;;;;;;103.40;67.77;;;1.20;99.90;;;;;;5084365;28;20226;-65
2021/12/06 09:39:39;;;;;;;114.60;72.47;;;1.00;99.90;;;;;;5091575;28;20223;-66
2021/12/06 09:42:32;;;;;;;118.13;70.20;;;1.10;99.90;;;;;;5091621;28;20222;-68
2021/12/06 09:45:25;;;;;;;112.27;68.90;;;1.10;99.90;;;;;;5093793;28;20231;-65
2021/12/06 09:48:16;;;;;;;106.57;67.83;;;1.10;99.90;;;;;;5091305;28;20307;-64
2021/12/06 09:51:09;;;;;;;110.93;71.03;;;1.10;99.90;;;;;;5094649;28;20212;-65
2021/12/06 09:53:59;;;;;;;101.10;68.30;;;1.10;99.90;;;;;;5093005;28;20530;-66
2021/12/06 09:56:49;;;;;;;100.43;66.07;;;1.00;99.90;;;;;;5091993;28;20709;-68
2021/12/06 09:59:39;;;;;;;118.43;73.23;;;0.90;99.90;;;;;;5088699;28;20235;-65
2021/12/06 10:02:30;;;;;;;116.20;75.20;;;1.00;99.90;;;;;;5088673;28;20213;-67
2021/12/06 10:05:20;;;;;;;117.97;71.60;;;0.90;99.90;;;;;;5104275;27;20376;-68
2021/12/06 10:08:09;;;;;;;113.90;71.90;;;1.00;99.90;;;;;;5092763;28;20232;-66
2021/12/06 10:10:57;;;;;;;119.13;72.40;;;1.00;99.90;;;;;;5089912;28;20223;-68
2021/12/06 10:13:47;;;;;;;99.83;67.97;;;1.00;99.90;;;;;;5091175;28;20211;-67
2021/12/06 10:16:36;;;;;;;96.93;68.17;;;0.90;99.90;;;;;;5091168;28;20219;-66
2021/12/06 10:19:26;;;;;;;100.90;69.73;;;1.00;99.90;;;;;;5092639;28;20225;-67
2021/12/06 10:22:16;;;;;;;81.57;61.27;;;1.10;99.90;;;;;;5096317;28;20242;-63
2021/12/06 10:25:07;;;;;;;90.10;67.33;;;1.00;99.90;;;;;;5089034;28;20211;-65
2021/12/06 10:28:17;;;;;;;94.87;68.37;;;1.10;99.90;;;;;;5090936;28;20225;-66
2021/12/06 10:31:08;;;;;;;88.63;65.83;;;1.00;99.90;;;;;;5093188;28;20877;-64
2021/12/06 10:33:57;;;;;;;83.97;66.83;;;1.00;99.90;;;;;;5096565;27;20221;-64
2021/12/06 10:36:48;;;;;;;89.20;69.50;;;1.00;99.90;;;;;;5097220;28;20227;-67
2021/12/06 10:39:37;;;;;;;85.60;64.50;;;1.20;99.90;;;;;;5095480;28;20221;-65
2021/12/06 10:42:27;;;;;;;99.23;70.70;;;1.20;99.90;;;;;;5097138;28;20222;-69
2021/12/06 10:45:21;;;;;;;96.33;71.43;;;1.10;99.90;;;;;;5093955;28;20234;-66
2021/12/06 10:48:13;;;;;;;99.33;71.97;;;1.10;99.90;;;;;;5090876;27;20223;-67
2021/12/06 10:51:05;;;;;;;98.37;73.47;;;0.90;99.90;;;;;;5089796;28;20215;-68
2021/12/06 10:54:01;;;;;;;92.30;66.67;;;0.90;99.90;;;;;;5089648;28;20260;-65
2021/12/06 10:56:53;;;;;;;96.73;68.80;;;1.00;99.90;;;;;;5092850;28;20597;-68
2021/12/06 10:59:41;;;;;;;98.35;72.18;;;1.00;99.90;;;;;;5090892;27;20521;-67
2021/12/06 11:02:30;;;;;;;86.30;65.43;;;1.10;99.90;;;;;;5098122;27;20221;-66
2021/12/06 11:05:24;;;;;;;88.73;67.67;;;1.00;99.90;;;;;;5091098;27;20224;-69
2021/12/06 11:08:15;;;;;;;86.00;65.03;;;1.10;99.90;;;;;;5092814;28;20231;-68
2021/12/06 11:11:09;;;;;;;82.07;65.47;;;0.90;99.90;;;;;;5091326;28;20211;-63
2021/12/06 11:14:00;;;;;;;85.30;64.40;;;1.00;99.90;;;;;;5092194;28;20212;-65
2021/12/06 11:16:53;;;;;;;84.93;62.77;;;1.10;99.90;;;;;;5095269;27;20216;-65
2021/12/06 11:19:42;;;;;;;87.77;67.90;;;1.00;99.90;;;;;;5095511;28;21018;-66
2021/12/06 11:22:33;;;;;;;93.83;69.87;;;1.00;99.90;;;;;;5094877;27;20695;-67
2021/12/06 11:25:33;;;;;;;87.53;65.57;;;0.90;99.90;;;;;;5094076;27;20415;-65
2021/12/06 11:28:28;;;;;;;91.77;64.87;;;0.90;99.90;;;;;;5089682;28;20229;-64
2021/12/06 11:31:19;;;;;;;87.73;65.57;;;0.80;99.90;;;;;;5094913;27;20225;-64
2021/12/06 11:34:10;;;;;;;101.57;68.87;;;0.80;99.90;;;;;;5107877;27;20279;-66
2021/12/06 11:36:59;;;;;;;94.33;66.63;;;0.80;99.90;;;;;;5094519;27;20219;-64
2021/12/06 11:39:51;;;;;;;89.57;64.73;;;0.80;99.90;;;;;;5094719;28;20250;-65
2021/12/06 11:42:49;;;;;;;87.70;64.33;;;0.70;99.90;;;;;;5093550;28;20226;-67
2021/12/06 11:45:43;;;;;;;91.13;66.73;;;0.70;99.90;;;;;;5090112;28;20708;-64
2021/12/06 11:48:35;;;;;;;91.60;66.70;;;0.70;99.90;;;;;;5094415;27;20244;-66
2021/12/06 11:51:26;;;;;;;101.97;69.50;;;0.70;99.90;;;;;;5102953;27;20307;-65
2021/12/06 11:54:15;;;;;;;97.03;67.50;;;0.70;99.90;;;;;;5093265;28;20221;-66
2021/12/06 11:57:22;;;;;;;90.67;68.33;;;0.70;99.90;;;;;;5107542;27;20218;-65
2021/12/06 12:00:15;;;;;;;87.53;66.17;;;0.70;99.90;;;;;;5093278;27;20703;-66
2021/12/06 12:03:05;;;;;;;93.73;68.47;;;0.70;99.90;;;;;;5094057;28;20334;-65
2021/12/06 12:05:54;;;;;;;81.13;65.50;;;0.70;99.90;;;;;;5092835;28;20221;-66
2021/12/06 12:08:43;;;;;;;74.57;58.80;;;0.80;99.90;;;;;;5088013;27;20271;-65
2021/12/06 12:11:32;;;;;;;72.97;57.53;;;0.90;99.90;;;;;;5087481;28;20796;-64
2021/12/06 12:14:26;;;;;;;83.90;65.43;;;0.70;99.90;;;;;;5088038;27;20317;-66
2021/12/06 12:17:18;;;;;;;84.43;66.70;;;0.80;99.90;;;;;;5093108;28;20285;-64
2021/12/06 12:20:11;;;;;;;88.00;68.27;;;0.90;99.90;;;;;;5088077;27;20219;-66
2021/12/06 12:23:05;;;;;;;85.53;65.80;;;0.90;99.90;;;;;;5089567;28;20537;-64
2021/12/06 12:26:00;;;;;;;78.77;64.20;;;1.00;99.90;;;;;;5087052;28;20217;-64
2021/12/06 12:28:52;;;;;;;83.47;66.80;;;0.90;99.90;;;;;;5086507;28;20236;-64
2021/12/06 12:31:41;;;;;;;85.70;68.17;;;0.90;99.90;;;;;;5087975;28;21053;-64
2021/12/06 12:34:32;;;;;;;83.00;66.93;;;0.90;99.90;;;;;;5089792;27;20226;-66
2021/12/06 12:37:24;;;;;;;89.13;68.90;;;0.70;99.90;;;;;;5098084;28;20231;-64
2021/12/06 12:40:17;;;;;;;96.30;70.13;;;0.70;99.90;;;;;;5092509;28;20236;-64
2021/12/06 12:43:10;;;;;;;85.17;64.53;;;0.80;99.90;;;;;;5093526;27;20236;-64
2021/12/06 12:46:03;;;;;;;115.50;78.73;;;0.70;99.90;;;;;;5094014;27;20723;-62
2021/12/06 12:48:56;;;;;;;94.13;69.83;;;0.90;99.90;;;;;;5108702;27;21467;-63
2021/12/06 12:51:48;;;;;;;101.07;71.70;;;0.80;99.90;;;;;;5093491;28;20364;-64
2021/12/06 12:54:44;;;;;;;89.87;68.93;;;0.70;99.90;;;;;;5091442;28;20227;-65
2021/12/06 12:57:37;;;;;;;106.70;73.53;;;0.70;99.90;;;;;;5092596;27;21571;-66
2021/12/06 13:00:26;;;;;;;90.00;69.53;;;0.80;99.90;;;;;;5088676;28;20242;-64
2021/12/06 13:03:36;;;;;;;97.07;71.60;;;0.80;99.90;;;;;;5094016;28;20229;-63
2021/12/06 13:06:28;;;;;;;89.57;71.37;;;0.70;99.90;;;;;;5091531;27;20290;-66
2021/12/06 13:09:29;;;;;;;96.60;69.47;;;0.70;99.90;;;;;;5092358;28;20218;-65
2021/12/06 13:12:20;;;;;;;88.10;67.50;;;0.70;99.90;;;;;;5088198;27;20320;-67
2021/12/06 13:15:16;;;;;;;92.70;70.40;;;0.70;99.90;;;;;;5092784;28;20242;-65
2021/12/06 13:18:28;;;;;;;99.23;73.10;;;0.70;99.90;;;;;;5090280;27;20229;-66
2021/12/06 13:21:43;;;;;;;102.07;73.77;;;0.80;99.90;;;;;;5091018;27;20219;-66
2021/12/06 13:24:38;;;;;;;106.83;75.33;;;0.80;99.90;;;;;;5088450;28;20250;-65
2021/12/06 13:27:43;;;;;;;119.77;76.37;;;0.80;99.90;;;;;;5104112;27;20278;-65
2021/12/06 13:30:37;;;;;;;111.47;75.43;;;0.70;99.90;;;;;;5071017;28;20230;-64
2021/12/06 13:33:38;;;;;;;111.63;76.43;;;0.70;99.90;;;;;;5057031;28;20233;-67
2021/12/06 13:36:44;;;;;;;112.30;75.37;;;0.70;99.90;;;;;;5061425;28;20697;-65
2021/12/06 13:39:35;;;;;;;103.97;76.53;;;0.70;99.90;;;;;;5053806;28;20965;-65
2021/12/06 13:42:40;;;;;;;91.97;69.33;;;0.80;99.90;;;;;;5073473;28;20568;-65
2021/12/06 13:45:30;;;;;;;100.10;75.67;;;0.60;99.90;;;;;;5071097;28;20230;-64
2021/12/06 13:48:22;;;;;;;104.87;76.53;;;0.60;99.90;;;;;;5072264;28;20582;-66
2021/12/06 13:51:33;;;;;;;103.50;75.73;;;0.60;99.90;;;;;;5066728;28;20781;-66
2021/12/06 13:54:28;;;;;;;102.53;75.90;;;0.60;99.90;;;;;;5060824;28;20227;-65
2021/12/06 13:57:18;;;;;;;90.97;71.23;;;0.70;99.90;;;;;;5063487;28;20252;-64
2021/12/06 14:00:11;;;;;;;99.53;75.80;;;0.60;99.90;;;;;;5070700;28;20287;-63
2021/12/06 14:03:03;;;;;;;95.07;71.57;;;0.70;99.90;;;;;;5076689;28;20214;-68
2021/12/06 14:05:52;;;;;;;97.17;72.53;;;0.60;99.90;;;;;;5060887;28;20220;-67
2021/12/06 14:08:46;;;;;;;89.70;71.10;;;0.60;99.90;;;;;;5062272;28;20811;-67
2021/12/06 14:11:35;;;;;;;90.37;70.70;;;0.60;99.90;;;;;;5069248;28;20327;-63
2021/12/06 14:14:25;;;;;;;92.40;73.60;;;0.60;99.90;;;;;;5064150;28;20226;-64
2021/12/06 14:17:18;;;;;;;88.17;70.63;;;0.70;99.90;;;;;;5074456;28;20578;-66
2021/12/06 14:20:11;;;;;;;91.10;70.03;;;0.60;99.90;;;;;;5059798;28;20219;-64
2021/12/06 14:23:00;;;;;;;97.37;72.47;;;0.60;99.90;;;;;;5080785;28;20211;-64
2021/12/06 14:25:51;;;;;;;92.27;71.07;;;0.60;99.90;;;;;;5073328;28;20227;-66
2021/12/06 14:28:47;;;;;;;83.10;68.83;;;0.60;99.90;;;;;;5072477;27;20216;-64
2021/12/06 14:31:39;;;;;;;85.93;69.33;;;0.50;99.90;;;;;;5098430;27;20281;-66
2021/12/06 14:34:33;;;;;;;90.97;72.70;;;0.50;99.90;;;;;;5101375;27;20214;-64
2021/12/06 14:37:22;;;;;;;87.37;68.80;;;0.60;99.90;;;;;;5091366;27;20715;-64
2021/12/06 14:40:12;;;;;;;90.87;73.37;;;0.70;99.90;;;;;;5091739;27;20222;-65
2021/12/06 14:43:01;;;;;;;94.53;74.80;;;0.60;99.90;;;;;;5097548;27;20225;-66